Time;durP1;ratioP1;P1;durP2;ratioP2;P2;SDS_P1;SDS_P2;PMS_P1;PMS_P2;Temp;Humidity;BMP_temperature;BMP_pressure;BME280_temperature;BME280_humidity;BME280_pressure;Samples;Min_cycle;Max_cycle;Signal;HPM_P1;HPM_P2
2023/08/30 00:59:18;;;;;;;2.60;2.40;;;20.30;64.40;;;;;;5052004;28;20234;-69
2023/08/30 01:01:45;;;;;;;2.15;1.83;;;20.30;64.40;;;;;;5051272;28;20569;-69
2023/08/30 01:04:10;;;;;;;2.85;2.20;;;20.30;64.40;;;;;;5052383;28;20213;-70
2023/08/30 01:06:36;;;;;;;2.10;1.88;;;20.30;64.50;;;;;;5052097;28;20206;-69
2023/08/30 01:09:03;;;;;;;2.10;1.90;;;20.30;64.50;;;;;;5052558;28;20518;-69
2023/08/30 01:11:48;;;;;;;1.88;1.77;;;20.30;64.50;;;;;;5052461;28;20183;-69
2023/08/30 01:14:17;;;;;;;3.28;1.95;;;20.30;64.50;;;;;;5052306;28;20258;-68
2023/08/30 01:16:43;;;;;;;2.60;1.77;;;20.30;65.40;;;;;;5056956;28;20542;-68
2023/08/30 01:19:33;;;;;;;2.00;1.80;;;20.30;64.50;;;;;;5054994;28;20637;-68
2023/08/30 01:22:09;;;;;;;2.50;2.03;;;20.30;64.50;;;;;;5056211;28;20266;-69
2023/08/30 01:25:09;;;;;;;1.90;1.80;;;20.30;64.60;;;;;;5055639;28;20171;-67
2023/08/30 01:27:34;;;;;;;2.00;1.90;;;20.30;64.50;;;;;;5055115;28;20759;-68
2023/08/30 01:30:00;;;;;;;2.03;1.77;;;20.20;65.30;;;;;;5054583;28;20183;-69
2023/08/30 01:32:27;;;;;;;1.80;1.70;;;20.30;64.50;;;;;;5055198;28;20211;-69
2023/08/30 01:34:53;;;;;;;2.15;1.95;;;20.30;64.50;;;;;;5054928;28;20182;-70
2023/08/30 01:37:18;;;;;;;2.50;2.22;;;20.30;64.50;;;;;;5056112;28;20254;-69
2023/08/30 01:39:44;;;;;;;2.00;1.90;;;20.30;64.50;;;;;;5055018;28;20202;-69
2023/08/30 01:42:10;;;;;;;2.20;2.00;;;20.20;64.90;;;;;;5054384;28;20202;-69
2023/08/30 01:44:35;;;;;;;2.53;1.70;;;20.30;64.50;;;;;;5055184;28;20220;-69
2023/08/30 01:47:01;;;;;;;2.28;2.08;;;20.20;64.50;;;;;;5038261;28;20217;-68
2023/08/30 01:49:32;;;;;;;1.95;1.73;;;20.20;64.40;;;;;;5054929;28;20175;-68
2023/08/30 01:51:57;;;;;;;1.75;1.60;;;20.20;64.50;;;;;;5055199;28;20218;-68
2023/08/30 01:54:23;;;;;;;3.38;2.03;;;20.20;64.50;;;;;;5054634;28;20211;-66
2023/08/30 01:56:48;;;;;;;2.08;1.90;;;20.20;64.50;;;;;;5037875;28;20175;-69
2023/08/30 01:59:14;;;;;;;1.85;1.60;;;20.20;64.50;;;;;;5055667;28;20223;-68
2023/08/30 02:01:39;;;;;;;1.98;1.88;;;20.20;64.50;;;;;;5054773;28;20175;-68
2023/08/30 02:04:05;;;;;;;1.60;1.50;;;20.20;64.40;;;;;;5055229;28;20176;-69
2023/08/30 02:06:36;;;;;;;1.50;1.40;;;20.20;64.50;;;;;;5055819;28;20206;-68
2023/08/30 02:09:39;;;;;;;2.20;2.00;;;20.20;64.50;;;;;;5054167;28;20293;-68
2023/08/30 02:12:06;;;;;;;1.90;1.70;;;20.20;64.50;;;;;;5055202;28;20270;-67
2023/08/30 02:14:32;;;;;;;3.50;2.03;;;20.20;64.40;;;;;;5038080;28;20646;-66
2023/08/30 02:16:58;;;;;;;2.08;1.67;;;20.20;64.40;;;;;;5037408;28;20208;-67
2023/08/30 02:19:23;;;;;;;1.90;1.80;;;20.20;64.40;;;;;;5037886;28;20202;-67
2023/08/30 02:21:49;;;;;;;2.10;1.90;;;20.10;64.30;;;;;;5055348;28;20519;-67
2023/08/30 02:24:14;;;;;;;2.00;1.85;;;20.20;65.30;;;;;;5054952;28;20309;-67
2023/08/30 02:26:40;;;;;;;1.95;1.85;;;20.20;64.50;;;;;;5054119;28;20257;-67
2023/08/30 02:29:05;;;;;;;2.15;1.85;;;20.10;64.40;;;;;;5055004;28;20183;-67
2023/08/30 02:31:31;;;;;;;1.77;1.67;;;20.20;64.50;;;;;;5055008;28;20179;-68
2023/08/30 02:33:57;;;;;;;1.90;1.70;;;20.20;64.50;;;;;;5055374;28;20189;-68
2023/08/30 02:36:22;;;;;;;2.22;1.80;;;20.10;64.40;;;;;;5054950;28;20183;-68
2023/08/30 02:38:48;;;;;;;3.65;2.08;;;20.10;64.40;;;;;;5054736;28;20254;-69
2023/08/30 02:41:13;;;;;;;1.77;1.67;;;20.20;64.50;;;;;;5054820;28;20206;-68
2023/08/30 02:43:39;;;;;;;1.80;1.70;;;20.10;64.40;;;;;;5054885;28;20175;-67
2023/08/30 02:46:05;;;;;;;2.83;2.05;;;20.10;64.40;;;;;;5054374;28;20210;-68
2023/08/30 02:48:34;;;;;;;2.00;1.88;;;20.10;64.40;;;;;;5053856;28;20564;-67
2023/08/30 02:50:59;;;;;;;2.03;1.92;;;20.10;64.50;;;;;;5054613;28;20225;-68
2023/08/30 02:53:25;;;;;;;2.42;2.13;;;20.10;64.40;;;;;;5054598;28;20179;-67
2023/08/30 02:55:50;;;;;;;2.00;1.67;;;20.10;64.50;;;;;;5055197;28;20495;-68
2023/08/30 02:58:16;;;;;;;1.90;1.80;;;20.10;64.50;;;;;;5054339;28;20226;-67
2023/08/30 03:00:42;;;;;;;1.80;1.70;;;20.10;64.50;;;;;;5054434;28;20175;-68
2023/08/30 03:03:07;;;;;;;1.77;1.67;;;20.10;64.50;;;;;;5054576;28;20188;-68
2023/08/30 03:05:33;;;;;;;2.03;1.90;;;20.10;64.50;;;;;;5054406;28;20171;-68
2023/08/30 03:07:58;;;;;;;1.88;1.70;;;20.10;64.50;;;;;;5054031;28;20203;-69
2023/08/30 03:10:24;;;;;;;1.83;1.73;;;20.10;64.50;;;;;;5054783;28;20178;-67
2023/08/30 03:12:49;;;;;;;2.00;1.88;;;20.10;64.50;;;;;;5054510;28;20258;-67
2023/08/30 03:15:15;;;;;;;2.60;1.90;;;20.10;64.50;;;;;;5053811;28;20175;-67
2023/08/30 03:17:41;;;;;;;1.88;1.67;;;20.10;64.50;;;;;;5054297;28;20332;-67
2023/08/30 03:20:07;;;;;;;1.85;1.70;;;20.10;64.50;;;;;;5054184;28;20757;-67
2023/08/30 03:22:32;;;;;;;1.67;1.58;;;20.10;64.50;;;;;;5053922;28;20183;-66
2023/08/30 03:24:58;;;;;;;1.45;1.35;;;20.10;64.50;;;;;;5054153;28;20696;-67
2023/08/30 03:27:24;;;;;;;2.00;1.80;;;20.10;64.50;;;;;;5053996;28;20245;-67
2023/08/30 03:29:49;;;;;;;1.80;1.70;;;20.00;64.50;;;;;;5054310;28;20201;-67
2023/08/30 03:32:17;;;;;;;2.38;1.67;;;20.10;64.50;;;;;;5053719;28;20190;-68
2023/08/30 03:34:46;;;;;;;1.92;1.63;;;20.10;64.60;;;;;;5053657;28;20598;-69
2023/08/30 03:37:13;;;;;;;1.80;1.70;;;20.00;64.50;;;;;;5053586;28;20587;-69
2023/08/30 03:39:39;;;;;;;2.05;1.88;;;20.00;64.50;;;;;;5054053;28;20225;-68
2023/08/30 03:42:04;;;;;;;1.98;1.80;;;20.00;64.50;;;;;;5053271;28;20179;-68
2023/08/30 03:44:30;;;;;;;2.25;1.85;;;20.00;64.50;;;;;;5054465;28;20198;-67
2023/08/30 03:46:56;;;;;;;1.77;1.67;;;20.10;64.50;;;;;;5053666;28;20297;-68
2023/08/30 03:49:22;;;;;;;2.25;1.70;;;20.10;65.40;;;;;;5053134;28;20246;-67
2023/08/30 03:51:48;;;;;;;2.10;1.90;;;20.00;64.60;;;;;;5054119;28;20225;-68
2023/08/30 03:54:16;;;;;;;1.80;1.70;;;20.00;64.50;;;;;;5053600;28;20614;-67
2023/08/30 03:56:45;;;;;;;2.10;1.90;;;20.00;64.60;;;;;;5053443;28;20546;-67
2023/08/30 03:59:11;;;;;;;1.90;1.50;;;20.00;64.60;;;;;;5053214;28;20223;-67
2023/08/30 04:01:36;;;;;;;1.65;1.55;;;20.00;64.60;;;;;;5053628;28;20171;-68
2023/08/30 04:04:02;;;;;;;1.77;1.67;;;20.00;65.40;;;;;;5052974;28;20178;-70
2023/08/30 04:06:27;;;;;;;1.60;1.50;;;20.00;64.50;;;;;;5053593;28;20233;-68
2023/08/30 04:08:53;;;;;;;1.58;1.48;;;20.00;64.50;;;;;;5053452;28;20559;-68
2023/08/30 04:11:19;;;;;;;1.83;1.73;;;20.00;64.50;;;;;;5052904;28;20540;-67
2023/08/30 04:13:44;;;;;;;1.67;1.58;;;20.00;64.50;;;;;;5053427;28;20537;-67
2023/08/30 04:16:10;;;;;;;2.17;1.73;;;20.00;64.60;;;;;;5053096;28;20216;-67
2023/08/30 04:18:36;;;;;;;1.70;1.60;;;20.00;64.60;;;;;;5052784;28;20179;-66
2023/08/30 04:21:02;;;;;;;1.67;1.58;;;20.00;64.60;;;;;;5053105;28;20167;-67
2023/08/30 04:23:29;;;;;;;1.88;1.77;;;20.00;64.70;;;;;;5053323;28;20210;-67
2023/08/30 04:25:54;;;;;;;1.85;1.75;;;20.00;64.60;;;;;;5052808;28;20254;-67
2023/08/30 04:28:20;;;;;;;1.95;1.65;;;20.00;64.60;;;;;;5052761;28;20694;-67
2023/08/30 04:30:45;;;;;;;1.65;1.55;;;20.00;64.70;;;;;;5051450;28;20233;-69
2023/08/30 04:33:11;;;;;;;1.88;1.73;;;19.90;64.50;;;;;;5052881;28;20191;-68
2023/08/30 04:35:37;;;;;;;2.30;1.80;;;20.00;64.60;;;;;;5052889;28;20178;-68
2023/08/30 04:38:03;;;;;;;2.92;1.90;;;20.00;64.60;;;;;;5052333;28;20214;-68
2023/08/30 04:40:30;;;;;;;1.65;1.50;;;20.00;64.60;;;;;;5052900;28;20665;-67
2023/08/30 04:42:55;;;;;;;1.67;1.58;;;20.00;64.60;;;;;;5052843;28;20179;-68
2023/08/30 04:45:21;;;;;;;2.65;2.45;;;20.00;65.40;;;;;;5052212;28;20178;-68
2023/08/30 04:47:47;;;;;;;1.92;1.65;;;19.90;64.50;;;;;;5052734;28;20244;-67
2023/08/30 04:50:13;;;;;;;1.75;1.65;;;19.90;64.50;;;;;;5052013;28;20195;-68
2023/08/30 04:52:39;;;;;;;1.98;1.77;;;19.90;64.50;;;;;;5052303;28;20611;-67
2023/08/30 04:55:05;;;;;;;1.70;1.60;;;19.90;64.50;;;;;;5052659;28;20262;-68
2023/08/30 04:57:30;;;;;;;1.90;1.77;;;19.90;64.50;;;;;;5052518;28;20171;-67
2023/08/30 04:59:56;;;;;;;2.38;2.03;;;19.90;64.50;;;;;;5052359;28;20181;-68
2023/08/30 05:02:22;;;;;;;1.92;1.73;;;19.90;64.40;;;;;;5052329;28;20618;-67
2023/08/30 05:04:48;;;;;;;1.73;1.60;;;19.90;64.40;;;;;;5052498;28;20201;-68
2023/08/30 05:07:13;;;;;;;2.13;1.95;;;19.90;64.40;;;;;;5052035;28;20272;-68
2023/08/30 05:09:40;;;;;;;2.08;1.88;;;19.90;64.50;;;;;;5052888;28;20173;-68
2023/08/30 05:12:06;;;;;;;1.58;1.48;;;19.90;64.40;;;;;;5052360;28;20179;-67
2023/08/30 05:14:32;;;;;;;2.25;1.80;;;19.90;64.40;;;;;;5052216;28;20199;-65
2023/08/30 05:16:57;;;;;;;2.40;2.00;;;19.90;64.40;;;;;;5052408;28;20661;-68
2023/08/30 05:19:23;;;;;;;1.80;1.70;;;19.90;64.40;;;;;;5052708;28;20174;-68
2023/08/30 05:21:51;;;;;;;2.03;1.83;;;19.90;64.40;;;;;;5052067;28;20633;-68
2023/08/30 05:24:17;;;;;;;1.70;1.60;;;19.90;64.40;;;;;;5051891;28;20634;-67
2023/08/30 05:26:42;;;;;;;1.55;1.45;;;19.90;64.30;;;;;;5052685;28;20329;-67
2023/08/30 05:29:08;;;;;;;1.90;1.80;;;19.90;64.30;;;;;;5051898;28;20266;-68
2023/08/30 05:31:33;;;;;;;2.05;1.85;;;19.90;64.30;;;;;;5052388;28;20229;-67
2023/08/30 05:33:59;;;;;;;2.00;1.80;;;19.90;64.20;;;;;;5051949;28;20189;-69
2023/08/30 05:36:24;;;;;;;2.13;1.98;;;19.90;64.30;;;;;;5052551;28;20612;-69
2023/08/30 05:38:50;;;;;;;2.65;2.30;;;19.90;64.20;;;;;;5052352;28;20163;-68
2023/08/30 05:41:15;;;;;;;2.67;2.45;;;19.90;64.30;;;;;;5051735;28;20237;-68
2023/08/30 05:43:41;;;;;;;4.25;2.40;;;19.90;64.20;;;;;;5052429;28;20174;-68
2023/08/30 05:46:12;;;;;;;5.07;2.30;;;19.90;64.20;;;;;;5051723;28;20294;-68
2023/08/30 05:48:37;;;;;;;2.22;2.05;;;19.90;64.20;;;;;;5052058;28;20179;-68
2023/08/30 05:51:03;;;;;;;3.83;2.38;;;19.90;64.20;;;;;;5052201;28;20584;-68
2023/08/30 05:53:28;;;;;;;2.70;2.50;;;19.90;64.10;;;;;;5052177;28;20176;-67
2023/08/30 05:55:54;;;;;;;4.40;2.45;;;19.90;64.10;;;;;;5051841;28;20210;-68
2023/08/30 05:58:19;;;;;;;2.90;2.60;;;19.90;64.20;;;;;;5051841;28;20218;-68
2023/08/30 06:00:45;;;;;;;2.60;2.35;;;19.90;64.20;;;;;;5054173;28;20200;-69
2023/08/30 06:03:11;;;;;;;2.78;2.58;;;19.90;64.20;;;;;;5055294;28;20167;-69
2023/08/30 06:05:36;;;;;;;4.45;2.70;;;19.90;64.20;;;;;;5056159;28;20195;-69
2023/08/30 06:08:02;;;;;;;2.83;2.47;;;19.90;64.20;;;;;;5055559;28;20629;-70
2023/08/30 06:10:28;;;;;;;3.10;2.80;;;19.90;64.20;;;;;;5055335;28;20201;-69
2023/08/30 06:12:53;;;;;;;2.97;2.78;;;19.90;64.20;;;;;;5055729;28;20285;-68
2023/08/30 06:15:19;;;;;;;2.85;2.65;;;20.00;64.20;;;;;;5055221;28;20178;-67
2023/08/30 06:17:46;;;;;;;2.90;2.70;;;19.90;64.90;;;;;;5055403;28;20634;-67
2023/08/30 06:20:12;;;;;;;3.60;3.20;;;19.90;64.10;;;;;;5055311;28;20233;-68
2023/08/30 06:22:37;;;;;;;3.20;2.90;;;20.00;64.20;;;;;;5055396;28;20182;-68
2023/08/30 06:25:04;;;;;;;2.75;2.33;;;19.90;64.20;;;;;;5054805;28;20210;-68
2023/08/30 06:27:30;;;;;;;3.05;2.83;;;19.90;64.20;;;;;;5055185;28;20233;-68
2023/08/30 06:29:55;;;;;;;2.60;2.40;;;20.00;64.20;;;;;;5055434;28;20167;-68
2023/08/30 06:32:21;;;;;;;3.28;2.97;;;20.00;64.20;;;;;;5054799;28;20245;-68
2023/08/30 06:34:46;;;;;;;3.20;2.90;;;20.00;65.10;;;;;;5055077;28;20172;-70
2023/08/30 06:37:12;;;;;;;2.35;2.15;;;19.90;64.30;;;;;;5054468;28;20210;-69
2023/08/30 06:39:37;;;;;;;2.85;2.60;;;19.90;64.30;;;;;;5055148;28;20186;-68
2023/08/30 06:42:04;;;;;;;2.85;2.65;;;19.90;64.40;;;;;;5054929;28;20194;-68
2023/08/30 06:44:29;;;;;;;2.45;2.25;;;19.90;64.40;;;;;;5054510;28;20171;-68
2023/08/30 06:46:56;;;;;;;2.95;2.65;;;19.90;64.40;;;;;;5055290;28;20263;-68
2023/08/30 06:49:22;;;;;;;3.33;2.75;;;19.90;64.40;;;;;;5055156;28;20195;-68
2023/08/30 06:51:47;;;;;;;3.20;2.90;;;19.90;64.50;;;;;;5054606;28;20195;-68
2023/08/30 06:54:13;;;;;;;2.63;2.42;;;19.90;64.40;;;;;;5054852;28;20167;-68
2023/08/30 06:56:38;;;;;;;4.00;3.60;;;19.90;64.50;;;;;;5054772;28;20182;-68
2023/08/30 06:59:04;;;;;;;2.85;2.58;;;19.90;64.40;;;;;;5053925;28;20219;-69
2023/08/30 07:01:30;;;;;;;3.17;2.88;;;19.90;64.40;;;;;;5054932;28;20304;-69
2023/08/30 07:03:55;;;;;;;3.70;2.42;;;20.00;64.50;;;;;;5054735;28;20656;-69
2023/08/30 07:06:21;;;;;;;3.30;2.90;;;19.90;64.40;;;;;;5053934;28;20566;-69
2023/08/30 07:08:46;;;;;;;3.10;2.80;;;20.00;64.50;;;;;;5054755;28;20630;-70
2023/08/30 07:11:12;;;;;;;3.20;2.60;;;19.90;64.50;;;;;;5053723;28;20183;-68
2023/08/30 07:13:38;;;;;;;3.55;2.67;;;19.90;65.40;;;;;;5053948;28;20316;-68
2023/08/30 07:16:03;;;;;;;2.95;2.75;;;19.90;64.60;;;;;;5054514;28;20167;-68
2023/08/30 07:18:29;;;;;;;2.95;2.67;;;19.90;64.60;;;;;;5054277;28;20182;-68
2023/08/30 07:20:54;;;;;;;3.00;2.78;;;19.90;64.60;;;;;;5054015;28;20257;-68
2023/08/30 07:23:20;;;;;;;3.45;3.15;;;19.90;64.60;;;;;;5053961;28;20629;-68
2023/08/30 07:25:45;;;;;;;3.83;3.05;;;19.80;64.60;;;;;;5054215;28;20178;-68
2023/08/30 07:28:11;;;;;;;3.00;2.70;;;19.90;64.60;;;;;;5053474;28;20175;-68
2023/08/30 07:30:37;;;;;;;3.05;2.80;;;19.90;64.60;;;;;;5054328;28;20650;-68
2023/08/30 07:33:04;;;;;;;3.03;2.72;;;19.90;64.70;;;;;;5054178;28;20187;-70
2023/08/30 07:35:30;;;;;;;3.15;2.85;;;19.90;64.70;;;;;;5053619;28;20178;-68
2023/08/30 07:37:55;;;;;;;2.92;2.70;;;19.90;64.70;;;;;;5054020;28;20221;-69
2023/08/30 07:40:24;;;;;;;3.30;3.00;;;19.90;64.70;;;;;;5053840;28;20536;-68
2023/08/30 07:42:49;;;;;;;3.08;2.78;;;19.90;64.70;;;;;;5053453;28;20175;-68
2023/08/30 07:45:15;;;;;;;2.72;2.53;;;19.90;64.70;;;;;;5053715;28;20652;-69
2023/08/30 07:47:40;;;;;;;3.10;2.90;;;19.90;64.80;;;;;;5053389;28;20629;-68
2023/08/30 07:50:07;;;;;;;3.20;2.90;;;19.90;64.70;;;;;;5053567;28;20171;-68
2023/08/30 07:52:32;;;;;;;2.80;2.60;;;19.90;64.70;;;;;;5053645;28;20175;-67
2023/08/30 07:54:58;;;;;;;3.10;2.63;;;19.90;64.80;;;;;;5053118;28;20233;-68
2023/08/30 07:57:23;;;;;;;2.70;2.50;;;19.80;64.70;;;;;;5053559;28;20312;-67
2023/08/30 07:59:49;;;;;;;2.55;2.35;;;19.80;65.50;;;;;;5053873;28;20638;-68
2023/08/30 08:02:14;;;;;;;2.75;2.55;;;19.80;64.70;;;;;;5052831;28;20202;-69
2023/08/30 08:04:40;;;;;;;2.80;2.55;;;19.80;64.70;;;;;;5053602;28;20163;-70
2023/08/30 08:07:05;;;;;;;2.83;2.53;;;19.80;64.70;;;;;;5053127;28;20290;-69
2023/08/30 08:09:32;;;;;;;3.53;2.75;;;19.80;64.70;;;;;;5053087;28;20179;-68
2023/08/30 08:11:57;;;;;;;2.80;2.60;;;19.80;65.70;;;;;;5053502;28;20190;-68
2023/08/30 08:14:24;;;;;;;3.00;2.70;;;19.80;64.80;;;;;;5053180;28;20167;-67
2023/08/30 08:16:49;;;;;;;2.80;2.45;;;19.80;64.80;;;;;;5053250;28;20183;-69
2023/08/30 08:19:15;;;;;;;2.60;2.40;;;19.80;64.80;;;;;;5053051;28;20262;-67
2023/08/30 08:21:40;;;;;;;2.80;2.55;;;19.80;64.80;;;;;;5053203;28;20257;-68
2023/08/30 08:24:06;;;;;;;2.83;2.60;;;19.80;64.80;;;;;;5051331;28;20167;-67
2023/08/30 08:26:32;;;;;;;3.15;2.90;;;19.80;64.80;;;;;;5052849;28;20211;-67
2023/08/30 08:28:57;;;;;;;2.60;2.38;;;19.80;64.80;;;;;;5053000;28;20179;-68
2023/08/30 08:31:23;;;;;;;2.47;2.15;;;19.80;65.70;;;;;;5052658;28;20175;-67
2023/08/30 08:33:51;;;;;;;2.88;2.55;;;19.80;64.80;;;;;;5052958;28;20175;-69
2023/08/30 08:36:17;;;;;;;2.35;2.15;;;19.80;64.80;;;;;;5052921;28;20178;-68
2023/08/30 08:38:42;;;;;;;2.95;2.70;;;19.80;64.90;;;;;;5052538;28;20199;-68
2023/08/30 08:41:08;;;;;;;2.30;2.10;;;19.80;64.90;;;;;;5052307;28;20258;-69
2023/08/30 08:43:36;;;;;;;3.25;2.95;;;19.80;64.90;;;;;;5051851;28;20255;-67
2023/08/30 08:46:02;;;;;;;2.88;2.67;;;19.80;64.90;;;;;;5050996;28;20214;-68
2023/08/30 08:48:28;;;;;;;2.65;2.35;;;19.80;64.90;;;;;;5034762;28;20214;-67
2023/08/30 08:50:54;;;;;;;2.47;2.28;;;19.80;64.90;;;;;;5052494;28;20179;-68
2023/08/30 08:53:20;;;;;;;2.72;2.42;;;19.80;65.80;;;;;;5052594;28;20202;-67
2023/08/30 08:55:46;;;;;;;2.40;2.20;;;19.80;64.90;;;;;;5053040;28;20537;-67
2023/08/30 08:58:11;;;;;;;2.60;2.40;;;19.80;64.80;;;;;;5050714;28;20215;-68
2023/08/30 09:00:37;;;;;;;3.10;2.80;;;19.80;64.80;;;;;;5051730;28;20665;-69
2023/08/30 09:03:04;;;;;;;2.75;2.55;;;19.80;64.80;;;;;;5052201;28;20253;-69
2023/08/30 09:05:29;;;;;;;2.75;2.55;;;19.80;64.80;;;;;;5050826;28;20717;-68
2023/08/30 09:07:55;;;;;;;2.70;2.50;;;19.80;65.70;;;;;;5051540;28;20297;-68
2023/08/30 09:10:21;;;;;;;3.03;2.72;;;19.80;64.80;;;;;;5034381;28;20175;-67
2023/08/30 09:12:47;;;;;;;2.35;2.10;;;19.80;64.80;;;;;;5051213;28;20548;-68
2023/08/30 09:15:15;;;;;;;2.55;2.33;;;19.80;64.90;;;;;;5052237;28;20171;-67
2023/08/30 09:17:41;;;;;;;2.08;1.90;;;19.80;64.90;;;;;;5052481;28;20186;-67
2023/08/30 09:20:10;;;;;;;2.60;2.40;;;19.80;64.90;;;;;;5051806;28;20610;-68
2023/08/30 09:22:39;;;;;;;3.00;2.70;;;19.80;64.90;;;;;;5052382;28;20557;-67
2023/08/30 09:25:10;;;;;;;2.72;2.53;;;19.80;64.90;;;;;;5052527;28;20210;-68
2023/08/30 09:27:35;;;;;;;2.53;2.30;;;19.80;65.00;;;;;;5052351;28;20218;-67
2023/08/30 09:30:03;;;;;;;2.60;2.40;;;19.80;65.00;;;;;;5052053;28;20209;-68
2023/08/30 09:32:28;;;;;;;2.47;2.28;;;19.80;65.10;;;;;;5051309;28;20179;-68
2023/08/30 09:34:54;;;;;;;2.50;2.30;;;19.80;65.10;;;;;;5052829;28;20637;-69
2023/08/30 09:37:23;;;;;;;3.28;2.15;;;19.70;65.90;;;;;;5055828;28;20179;-68
2023/08/30 09:39:51;;;;;;;2.70;2.50;;;19.80;65.10;;;;;;5056565;28;20198;-68
2023/08/30 09:42:17;;;;;;;2.63;2.42;;;19.80;65.10;;;;;;5055545;28;20599;-68
2023/08/30 09:44:43;;;;;;;2.92;2.70;;;19.80;65.10;;;;;;5056236;28;20221;-68
2023/08/30 09:47:09;;;;;;;3.08;2.30;;;19.70;65.90;;;;;;5054335;28;20199;-68
2023/08/30 09:49:41;;;;;;;2.80;2.60;;;19.70;65.10;;;;;;5056245;28;20237;-68
2023/08/30 09:52:08;;;;;;;2.53;2.20;;;19.70;65.10;;;;;;5054456;28;20229;-68
2023/08/30 09:54:34;;;;;;;2.63;2.33;;;19.70;65.10;;;;;;5054386;28;20242;-67
2023/08/30 09:56:59;;;;;;;2.42;2.22;;;19.70;65.10;;;;;;5054758;28;20176;-68
2023/08/30 09:59:25;;;;;;;2.50;2.30;;;19.70;65.20;;;;;;5055583;28;20257;-68
2023/08/30 10:01:52;;;;;;;2.53;2.33;;;19.70;65.10;;;;;;5054366;28;20174;-69
2023/08/30 10:04:18;;;;;;;2.72;2.40;;;19.80;65.20;;;;;;5038071;28;20638;-69
2023/08/30 10:06:44;;;;;;;2.50;2.30;;;19.80;65.20;;;;;;5054619;28;20211;-69
2023/08/30 10:09:09;;;;;;;3.03;2.83;;;19.80;65.20;;;;;;5054115;28;20177;-69
2023/08/30 10:11:35;;;;;;;2.58;2.03;;;19.80;65.20;;;;;;5055680;28;20175;-68
2023/08/30 10:14:06;;;;;;;2.40;2.20;;;19.80;65.20;;;;;;5055525;28;20258;-68
2023/08/30 10:16:41;;;;;;;2.20;2.00;;;19.80;65.20;;;;;;5055343;28;20256;-67
2023/08/30 10:19:10;;;;;;;2.45;2.25;;;19.80;65.20;;;;;;5055493;28;20177;-67
2023/08/30 10:21:36;;;;;;;2.08;1.95;;;19.80;65.20;;;;;;5056571;28;20215;-68
2023/08/30 10:24:03;;;;;;;2.95;2.28;;;19.70;65.10;;;;;;5055075;28;20218;-67
2023/08/30 10:26:28;;;;;;;2.58;2.38;;;19.80;65.20;;;;;;5054160;28;20219;-67
2023/08/30 10:28:54;;;;;;;2.38;2.10;;;19.80;65.20;;;;;;5055651;28;20175;-68
2023/08/30 10:31:19;;;;;;;2.45;2.25;;;19.80;65.20;;;;;;5053542;28;20258;-68
2023/08/30 10:33:53;;;;;;;2.13;1.98;;;19.80;65.20;;;;;;5054015;28;20224;-68
2023/08/30 10:36:25;;;;;;;2.35;2.15;;;19.80;65.20;;;;;;5054850;28;20179;-68
2023/08/30 10:38:51;;;;;;;2.45;2.25;;;19.80;65.20;;;;;;5055404;28;20179;-67
2023/08/30 10:41:22;;;;;;;2.08;1.88;;;19.80;65.20;;;;;;5054826;28;20210;-69
2023/08/30 10:43:52;;;;;;;2.58;2.38;;;19.80;65.20;;;;;;5054678;28;20198;-68
2023/08/30 10:46:29;;;;;;;2.20;2.00;;;19.80;65.10;;;;;;5054113;28;20281;-68
2023/08/30 10:48:56;;;;;;;2.30;2.10;;;19.80;65.00;;;;;;5054978;28;20194;-69
2023/08/30 10:51:37;;;;;;;2.50;2.03;;;19.80;65.10;;;;;;5053059;28;20180;-68
2023/08/30 10:54:13;;;;;;;2.30;2.10;;;19.80;65.10;;;;;;5054527;28;20175;-69
2023/08/30 10:57:01;;;;;;;1.85;1.75;;;19.80;66.00;;;;;;5055140;28;20170;-69
2023/08/30 10:59:26;;;;;;;2.10;2.00;;;19.80;65.20;;;;;;5054189;28;20230;-69
2023/08/30 11:01:53;;;;;;;2.00;1.90;;;19.80;65.20;;;;;;5054659;28;20258;-70
2023/08/30 11:04:19;;;;;;;2.17;2.00;;;19.80;65.20;;;;;;5054423;28;20190;-70
2023/08/30 11:06:49;;;;;;;2.60;2.40;;;19.80;65.20;;;;;;5054169;28;20215;-70
2023/08/30 11:09:18;;;;;;;2.08;1.98;;;19.80;65.20;;;;;;5054439;28;20250;-69
2023/08/30 11:11:44;;;;;;;2.10;1.90;;;19.80;65.20;;;;;;5054231;28;20190;-68
2023/08/30 11:14:09;;;;;;;2.17;2.00;;;19.80;65.40;;;;;;5054317;28;20246;-67
2023/08/30 11:16:35;;;;;;;1.90;1.80;;;19.80;66.10;;;;;;5054538;28;20281;-67
2023/08/30 11:19:04;;;;;;;1.95;1.85;;;19.80;65.20;;;;;;5053902;28;20267;-68
2023/08/30 11:21:30;;;;;;;2.72;2.25;;;19.80;65.40;;;;;;5054309;28;20175;-68
2023/08/30 11:23:56;;;;;;;1.95;1.75;;;19.90;65.50;;;;;;5054148;28;20641;-68
2023/08/30 11:26:22;;;;;;;2.42;2.22;;;19.90;65.40;;;;;;5053586;28;20294;-69
2023/08/30 11:28:51;;;;;;;2.30;2.00;;;19.90;65.40;;;;;;5054200;28;20642;-69
2023/08/30 11:31:26;;;;;;;2.30;2.10;;;19.90;65.30;;;;;;5054167;28;20171;-69
2023/08/30 11:33:56;;;;;;;2.35;2.15;;;19.90;65.40;;;;;;5053820;28;20183;-70
2023/08/30 11:36:23;;;;;;;2.20;2.00;;;19.80;65.60;;;;;;5053891;28;20209;-69
2023/08/30 11:38:49;;;;;;;2.20;2.00;;;19.80;65.50;;;;;;5054053;28;20262;-71
2023/08/30 11:41:15;;;;;;;2.17;1.75;;;19.90;65.60;;;;;;5053483;28;20189;-68
2023/08/30 11:43:40;;;;;;;1.70;1.60;;;19.90;65.60;;;;;;5052766;28;20626;-68
2023/08/30 11:46:06;;;;;;;2.20;2.00;;;19.90;65.60;;;;;;5053510;28;20690;-69
2023/08/30 11:48:32;;;;;;;2.30;2.10;;;19.90;65.50;;;;;;5052089;28;20179;-67
2023/08/30 11:50:58;;;;;;;4.53;2.30;;;20.00;65.50;;;;;;5053535;28;20205;-69
2023/08/30 11:53:24;;;;;;;2.78;2.00;;;20.00;65.40;;;;;;5052522;28;20179;-67
2023/08/30 11:55:50;;;;;;;2.20;2.03;;;20.00;65.50;;;;;;5053451;28;20178;-69
2023/08/30 11:58:17;;;;;;;2.20;1.98;;;19.90;65.40;;;;;;5051750;28;20222;-69
2023/08/30 12:00:43;;;;;;;1.90;1.80;;;20.00;65.40;;;;;;5052185;28;20214;-69
2023/08/30 12:03:08;;;;;;;2.25;2.05;;;20.10;66.30;;;;;;5053430;28;20198;-70
2023/08/30 12:05:35;;;;;;;2.50;2.30;;;20.10;65.10;;;;;;5053388;28;20179;-68
2023/08/30 12:08:00;;;;;;;2.08;1.95;;;20.20;65.00;;;;;;5052824;28;20221;-68
2023/08/30 12:10:27;;;;;;;2.17;2.08;;;20.30;64.80;;;;;;5053547;28;20171;-67
2023/08/30 12:12:52;;;;;;;2.30;2.10;;;20.30;64.60;;;;;;5035595;28;20232;-69
2023/08/30 12:15:19;;;;;;;2.15;1.95;;;20.40;64.50;;;;;;5052695;28;20266;-67
2023/08/30 12:17:44;;;;;;;2.15;2.05;;;20.40;64.50;;;;;;5053410;28;20186;-67
2023/08/30 12:20:23;;;;;;;3.15;2.47;;;20.50;64.40;;;;;;5053052;28;20171;-67
2023/08/30 12:22:50;;;;;;;2.00;1.80;;;20.50;64.30;;;;;;5052936;28;20546;-69
2023/08/30 12:25:20;;;;;;;2.03;1.88;;;20.60;65.10;;;;;;5052848;28;20297;-67
2023/08/30 12:27:46;;;;;;;2.05;1.95;;;20.60;64.40;;;;;;5053121;28;20674;-69
2023/08/30 12:30:13;;;;;;;2.78;2.08;;;20.50;65.40;;;;;;5052419;28;20175;-70
2023/08/30 12:32:39;;;;;;;2.00;1.90;;;20.50;64.80;;;;;;5053143;28;20171;-69
2023/08/30 12:35:05;;;;;;;2.13;2.03;;;20.40;64.90;;;;;;5052926;28;20652;-70
2023/08/30 12:37:31;;;;;;;2.17;1.98;;;20.30;64.90;;;;;;5052761;28;20181;-68
2023/08/30 12:39:56;;;;;;;2.03;1.92;;;20.30;65.00;;;;;;5052832;28;20171;-68
2023/08/30 12:42:22;;;;;;;2.20;2.00;;;20.30;66.00;;;;;;5052777;28;20540;-68
2023/08/30 12:44:47;;;;;;;2.00;1.90;;;20.30;65.10;;;;;;5052360;28;20559;-67
2023/08/30 12:47:14;;;;;;;2.90;2.08;;;20.30;66.00;;;;;;5052478;28;20302;-68
2023/08/30 12:49:39;;;;;;;2.20;1.90;;;20.30;65.10;;;;;;5053011;28;20183;-67
2023/08/30 12:52:06;;;;;;;1.98;1.88;;;20.40;65.10;;;;;;5052124;28;20236;-68
2023/08/30 12:54:31;;;;;;;2.13;1.80;;;20.40;65.00;;;;;;5052744;28;20646;-67
2023/08/30 12:56:57;;;;;;;2.85;1.80;;;20.40;64.90;;;;;;5052958;28;20174;-68
2023/08/30 12:59:22;;;;;;;1.95;1.85;;;20.40;64.90;;;;;;5052719;28;20685;-68
2023/08/30 13:01:48;;;;;;;2.03;1.92;;;20.50;65.70;;;;;;5052768;28;20183;-68
2023/08/30 13:04:13;;;;;;;2.20;2.00;;;20.60;64.80;;;;;;5051810;28;20550;-70
2023/08/30 13:06:39;;;;;;;1.90;1.80;;;20.70;64.50;;;;;;5052682;28;20245;-69
2023/08/30 13:09:05;;;;;;;2.08;1.90;;;20.70;64.30;;;;;;5052087;28;20175;-68
2023/08/30 13:11:32;;;;;;;1.90;1.70;;;20.80;64.10;;;;;;5052085;28;20175;-68
2023/08/30 13:13:58;;;;;;;1.77;1.67;;;20.90;63.90;;;;;;5052257;28;20187;-68
2023/08/30 13:16:24;;;;;;;1.90;1.80;;;21.00;63.60;;;;;;5052416;28;20316;-67
2023/08/30 13:18:49;;;;;;;1.77;1.67;;;21.10;63.40;;;;;;5052235;28;20260;-67
2023/08/30 13:21:15;;;;;;;2.25;2.05;;;21.10;63.40;;;;;;5052341;28;20214;-67
2023/08/30 13:23:40;;;;;;;1.90;1.80;;;21.00;63.50;;;;;;5052588;28;20645;-67
2023/08/30 13:26:06;;;;;;;1.90;1.80;;;20.90;64.50;;;;;;5051740;28;20271;-67
2023/08/30 13:28:32;;;;;;;1.70;1.60;;;21.00;63.70;;;;;;5052323;28;20186;-68
2023/08/30 13:30:57;;;;;;;2.58;2.00;;;21.10;63.50;;;;;;5052252;28;20175;-68
2023/08/30 13:33:23;;;;;;;2.10;1.90;;;21.20;63.40;;;;;;5052092;28;20229;-68
2023/08/30 13:35:50;;;;;;;2.13;2.03;;;21.20;63.10;;;;;;5052213;28;20167;-69
2023/08/30 13:38:16;;;;;;;1.88;1.77;;;21.30;62.90;;;;;;5052037;28;20689;-69
2023/08/30 13:40:41;;;;;;;2.00;1.90;;;21.40;62.80;;;;;;5051866;28;20278;-69
2023/08/30 13:43:07;;;;;;;2.08;1.73;;;21.40;62.70;;;;;;5051765;28;20171;-68